• Join FlightAware (Why Join?)
  • Login
  • US Flag GB Flag 
07:38 EST


 

Airport Tracker/Info


-or-


 

Live Flight TrackerFlight Track Log ✈ SWA419 ✈ 19-Apr-2013 ✈ KPWM - KBWI

Flight Track Log - Related Links

Times and Time Zones

All times are in EDT time to prevent confusion due to time zone crossing. See the SWA419 flight status page for this flight to view local times or setup timezone preferences in your user account.

Time Position Orientation Groundspeed Altitude Reporting Facility
EDT Latitude Longitude Course Direction KTS MPH feet Rate Location/Type
12:11 43.4992 -70.3992 206° Southwest 260 299 10,000  Level Boston Center
12:12 43.4233 -70.4706 214° Southwest 288 331 12,100 2,940 Climbing Boston Center
12:13 43.3536 -70.5383 215° Southwest 312 359 16,000 3,180 Climbing Boston Center
12:14 43.1578 -70.6942 209° Southwest  Level FlightAware Approximate
12:15 43.0855 -70.7549 210° Southwest  Level FlightAware Approximate
12:15 43.2448 -70.6290 209° Southwest  Level FlightAware Approximate
12:15 43.2078 -70.6769 209° Southwest 330 380 21,900  Level Boston Center
12:16 43.0033 -70.8145 206° Southwest  Level FlightAware Approximate
12:16 43.1236 -70.7475 211° Southwest 342 394 24,000  Level Boston Center
12:17 43.0328 -70.8153 209° Southwest 361 415 26,100 1,800 Climbing Boston Center
12:18 42.9339 -70.8889 209° Southwest 385 443 27,700 1,680 Climbing Boston Center
12:19 42.8283 -70.9594 206° Southwest 407 468 29,500 1,140 Climbing Boston Center
12:20 42.7144 -71.0158 200° South 422 486 30,000 240 Climbing Boston Center
12:21 42.6047 -71.0692 200° South 422 486 30,000 60 Level Boston Center
12:22 42.4969 -71.1250 201° Southwest 427 491 30,200 960 Climbing Boston Center
12:23 42.4275 -71.2475 233° Southwest 398 458 32,000 900 Climbing Boston Center
12:24 42.3622 -71.3947 239° Southwest 416 479 32,000  Level Boston Center
12:25 42.2967 -71.5278 236° Southwest 421 484 32,000 -240 Level Boston Center
12:26 42.2311 -71.6606 236° Southwest 426 490 31,600 -360 Descending Boston Center
12:28 42.1875 -71.8375 246° West  Level FlightAware Approximate
12:28 42.1033 -71.9225 246° West 421 484 31,000  Level Boston Center
12:29 42.0372 -72.0572 237° Southwest 421 484 31,000  Level Boston Center
12:30 41.9728 -72.1917 237° Southwest 426 490 31,000  Level Boston Center
12:31 41.9086 -72.3228 237° Southwest 426 490 31,000 -420 Level Boston Center
12:32 41.8439 -72.4567 237° Southwest 426 490 30,200 -540 Descending Boston Center
12:33 41.7792 -72.5878 237° Southwest 426 490 30,000 -120 Descending Boston Center
12:34 41.7247 -72.6961 236° Southwest 426 490 30,000  Level Boston Center
12:35 41.6514 -72.8403 236° Southwest 433 498 30,000  Level Boston Center
12:36 41.5883 -72.9731 238° Southwest 433 498 30,000  Level Boston Center
12:37 41.5169 -73.1164 236° Southwest 428 493 30,000  Level Boston Center
12:38 41.4514 -73.2489 237° Southwest 428 493 30,000  Level Boston Center
12:39 41.3858 -73.3753 235° Southwest 428 493 30,000  Level Boston Center
12:40 41.3219 -73.5069 237° Southwest 428 493 30,000  Level Boston Center
12:41 41.2519 -73.6328 234° Southwest 428 493 30,000  Level Boston Center
12:41 41.2258 -73.6786 233° Southwest 430 495 30,000  Level New York Center
12:42 41.1519 -73.8022 232° Southwest 423 487 30,000  Level New York Center
12:43 41.0800 -73.9228 232° Southwest 428 493 30,000 -420 Level New York Center
12:45 41.0078 -74.0461 232° Southwest 433 498 29,200 -900 Descending New York Center
12:46 40.9336 -74.1658 231° Southwest 433 498 28,200 -1,020 Descending New York Center
12:46 40.8681 -74.2753 232° Southwest 433 498 27,300 -1,020 Descending New York Center
12:47 40.7936 -74.3919 230° Southwest 428 493 26,300 -660 Descending New York Center
12:48 40.7253 -74.5089 232° Southwest 428 493 26,000 -360 Descending New York Center
12:50 40.6550 -74.6225 231° Southwest 423 487 25,600 -720 Descending New York Center
12:51 40.5867 -74.7361 232° Southwest 417 480 24,600 -1,080 Descending New York Center
12:52 40.5164 -74.8414 229° Southwest 405 466 23,500 -1,080 Descending New York Center
12:52 40.4464 -74.9356 226° Southwest 387 445 22,500 -960 Descending New York Center
12:54 40.3783 -75.0322 227° Southwest 374 430 21,600 -1,020 Descending New York Center
12:55 40.3103 -75.1258 226° Southwest 362 417 20,500 -1,200 Descending New York Center
12:55 40.2378 -75.2300 228° Southwest 362 417 19,300 -780 Descending New York Center
12:56 40.1761 -75.3131 226° Southwest 362 417 19,000 -180 Descending New York Center
12:57 40.1056 -75.4117 227° Southwest 355 409 19,000  Level New York Center
12:59 40.0461 -75.4944 227° Southwest 355 409 19,000  Level New York Center
12:59 39.9753 -75.5925 227° Southwest 350 403 19,000  Level New York Center
13:00 39.9178 -75.6725 227° Southwest 350 403 19,000  Level New York Center
13:01 39.8567 -75.7872 235° Southwest 350 403 19,000 -1,380 Level New York Center
13:02 39.8044 -75.8861 236° Southwest 350 403 16,300 -2,280 Descending New York Center
13:04 39.7000 -76.0833 236° Southwest 304 350 12,300 -1,620 Descending Potomac TRACON
13:05 39.6667 -76.1667 243° Southwest 259 298 11,600 -900 Descending Potomac TRACON
13:06 39.6333 -76.2500 243° Southwest 258 297 10,500 -1,080 Descending Potomac TRACON
13:07 39.6000 -76.3167 237° Southwest 248 285 9,600 -1,140 Descending Potomac TRACON
13:08 39.5667 -76.3833 237° Southwest 240 276 8,400 -1,380 Descending Potomac TRACON
13:09 39.5333 -76.4667 243° Southwest 223 257 6,800 -1,560 Descending Potomac TRACON
13:10 39.5000 -76.5333 237° Southwest 225 259 5,300 -1,500 Descending Potomac TRACON
13:11 39.4667 -76.6000 237° Southwest 231 266 4,000 -660 Descending Potomac TRACON
13:12 39.4500 -76.6667 252° West 223 257 4,000  Level Potomac TRACON
13:13 39.4167 -76.7333 237° Southwest 218 251 4,000 -600 Level Potomac TRACON
13:14 39.3667 -76.7667 207° Southwest 211 243 2,800 -720 Descending Potomac TRACON
13:15 39.3000 -76.7833 191° South 193 222 2,600 -360 Descending Potomac TRACON
13:16 39.2667 -76.7833 180° South 182 209 2,200 -600 Descending Potomac TRACON
13:17 39.2167 -76.7833 180° South 155 178 1,400 -600 Descending Potomac TRACON
13:18 39.1833 -76.7500 142° Southeast 156 180 1,100 -360 Descending Potomac TRACON
13:20 39.1667 -76.6667 270° West  Level FlightAware Approximate
13:27 39.1754 -76.6683 270° West  Level Estimated
13:28 39.1754 -76.6683 270° West  Level Estimated
13:29 39.1754 -76.6683 270° West  Level Estimated
13:30 39.1754 -76.6683 270° West  Level Estimated